Time;durP1;ratioP1;P1;durP2;ratioP2;P2;SDS_P1;SDS_P2;PMS_P1;PMS_P2;Temp;Humidity;BMP_temperature;BMP_pressure;BME280_temperature;BME280_humidity;BME280_pressure;Samples;Min_cycle;Max_cycle;Signal;HPM_P1;HPM_P2
2023/10/06 00:02:58;;;;;;;11.90;7.10;;;;;;;;;;5090216;28;20036;-61
2023/10/06 00:05:24;;;;;;;14.82;7.90;;;;;;;;;;5072051;28;20053;-59
2023/10/06 00:07:51;;;;;;;11.73;6.80;;;;;;;;;;5090130;28;20070;-60
2023/10/06 00:10:20;;;;;;;11.77;6.93;;;;;;;;;;5071660;28;20024;-61
2023/10/06 00:12:47;;;;;;;;;;;;;;;;;;5090513;28;20055;-60
2023/10/06 00:15:26;;;;;;;13.35;7.65;;;;;;;;;;5089876;28;20453;-60
2023/10/06 00:17:55;;;;;;;12.35;7.25;;;;;;;;;;5090018;28;20020;-60
2023/10/06 00:20:38;;;;;;;12.02;7.18;;;;;;;;;;5089820;28;20028;-60
2023/10/06 00:23:06;;;;;;;12.07;7.30;;;;;;;;;;5090196;28;20020;-60
2023/10/06 00:25:35;;;;;;;11.87;7.00;;;;;;;;;;5089807;28;20115;-61
2023/10/06 00:28:03;;;;;;;12.25;7.40;;;;;;;;;;5089973;28;20492;-60
2023/10/06 00:30:29;;;;;;;12.52;8.23;;;;;;;;;;5089555;28;20028;-57
2023/10/06 00:32:56;;;;;;;11.85;6.85;;;;;;;;;;5089742;28;20077;-60
2023/10/06 00:35:30;;;;;;;12.10;7.32;;;;;;;;;;5089809;28;20050;-60
2023/10/06 00:38:05;;;;;;;12.60;7.22;;;;;;;;;;5075380;28;20028;-59
2023/10/06 00:40:33;;;;;;;14.05;9.32;;;;;;;;;;5093358;28;20027;-61
2023/10/06 00:43:00;;;;;;;19.88;9.65;;;;;;;;;;5093640;28;20032;-59
2023/10/06 00:45:30;;;;;;;12.75;7.68;;;;;;;;;;5075453;28;20453;-60
2023/10/06 00:47:56;;;;;;;12.13;7.10;;;;;;;;;;5093168;28;20024;-59
2023/10/06 00:50:24;;;;;;;12.23;7.10;;;;;;;;;;5093051;28;20059;-59
2023/10/06 00:52:50;;;;;;;12.00;7.00;;;;;;;;;;5093298;28;20024;-59
2023/10/06 00:55:17;;;;;;;11.80;6.90;;;;;;;;;;5093281;28;20070;-58
2023/10/06 00:57:52;;;;;;;13.32;8.07;;;;;;;;;;5075233;28;20024;-60
2023/10/06 01:00:22;;;;;;;17.08;8.52;;;;;;;;;;5093082;28;20049;-60
2023/10/06 01:02:51;;;;;;;13.23;7.55;;;;;;;;;;5092981;28;20066;-57
2023/10/06 01:05:19;;;;;;;11.65;6.80;;;;;;;;;;5093096;28;20024;-60
2023/10/06 01:07:49;;;;;;;11.88;7.22;;;;;;;;;;5074872;28;20032;-60
2023/10/06 01:10:27;;;;;;;11.85;7.38;;;;;;;;;;5074810;28;20024;-60
2023/10/06 01:12:54;;;;;;;11.13;6.45;;;;;;;;;;5093113;28;20047;-60
2023/10/06 01:15:20;;;;;;;11.50;6.70;;;;;;;;;;5092738;28;20401;-61
2023/10/06 01:17:47;;;;;;;11.45;6.68;;;;;;;;;;5074676;28;20032;-59
2023/10/06 01:20:28;;;;;;;12.32;7.53;;;;;;;;;;5092521;28;20136;-57
2023/10/06 01:22:56;;;;;;;12.25;7.20;;;;;;;;;;5074690;28;20028;-58
2023/10/06 01:25:24;;;;;;;11.68;6.80;;;;;;;;;;5092672;28;20020;-57
2023/10/06 01:27:53;;;;;;;12.18;7.13;;;;;;;;;;5074503;28;20024;-59
2023/10/06 01:30:19;;;;;;;11.65;6.95;;;;;;;;;;5092375;28;20024;-60
2023/10/06 01:32:51;;;;;;;12.20;7.47;;;;;;;;;;5092613;28;20024;-58
2023/10/06 01:35:18;;;;;;;23.02;8.27;;;;;;;;;;5092375;28;20024;-57
2023/10/06 01:37:44;;;;;;;12.80;7.50;;;;;;;;;;5092558;28;20071;-59
2023/10/06 01:42:55;;;;;;;11.82;7.00;;;;;;;;;;5092307;28;20107;-59
2023/10/06 01:45:21;;;;;;;12.07;7.40;;;;;;;;;;5092156;28;20409;-58
2023/10/06 01:48:34;;;;;;;12.52;7.85;;;;;;;;;;5091617;28;20103;-60
2023/10/06 01:50:41;;;;;;;12.15;7.63;;;;;;;;;;5081085;28;20478;-59
2023/10/06 01:53:07;;;;;;;12.73;7.70;;;;;;;;;;5092428;28;20383;-58
2023/10/06 01:55:39;;;;;;;12.27;7.38;;;;;;;;;;5092520;28;20024;-61
2023/10/06 01:58:07;;;;;;;11.60;6.82;;;;;;;;;;5074326;28;20028;-58
2023/10/06 02:00:35;;;;;;;11.60;7.03;;;;;;;;;;5092195;28;20024;-60
2023/10/06 02:03:03;;;;;;;11.95;7.20;;;;;;;;;;5092473;28;20047;-60
2023/10/06 02:05:29;;;;;;;11.80;7.00;;;;;;;;;;5091773;28;20020;-60
2023/10/06 02:08:01;;;;;;;12.27;7.10;;;;;;;;;;5091952;28;20042;-61
2023/10/06 02:10:27;;;;;;;10.90;6.50;;;;;;;;;;5073503;28;20105;-60
2023/10/06 02:12:55;;;;;;;12.15;7.45;;;;;;;;;;5073585;28;20531;-59
2023/10/06 02:15:21;;;;;;;12.57;7.68;;;;;;;;;;5091885;28;20560;-59
2023/10/06 02:17:50;;;;;;;11.82;6.93;;;;;;;;;;5091825;28;20059;-60
2023/10/06 02:22:51;;;;;;;11.25;6.60;;;;;;;;;;5091893;28;20070;-60
2023/10/06 02:25:18;;;;;;;11.60;6.75;;;;;;;;;;5091652;28;20031;-59
2023/10/06 02:27:46;;;;;;;12.10;7.20;;;;;;;;;;5073128;28;20036;-60
2023/10/06 02:30:13;;;;;;;20.35;8.70;;;;;;;;;;5091302;28;20026;-59
2023/10/06 02:32:39;;;;;;;12.00;7.00;;;;;;;;;;5073586;28;20392;-60
2023/10/06 02:35:07;;;;;;;11.88;7.00;;;;;;;;;;5073413;28;20020;-59
2023/10/06 02:37:33;;;;;;;11.23;6.57;;;;;;;;;;5091576;28;20045;-57
2023/10/06 02:39:59;;;;;;;12.10;7.43;;;;;;;;;;5091257;28;20278;-59
2023/10/06 02:42:25;;;;;;;12.15;7.00;;;;;;;;;;5091021;28;20024;-59
2023/10/06 02:44:53;;;;;;;12.95;8.50;;;;;;;;;;5091147;28;20055;-58
2023/10/06 02:47:21;;;;;;;12.40;7.90;;;;;;;;;;5072966;28;20035;-58
2023/10/06 02:49:58;;;;;;;12.38;7.32;;;;;;;;;;5091161;28;20505;-59
2023/10/06 02:52:37;;;;;;;12.07;7.32;;;;;;;;;;5072730;28;20493;-59
2023/10/06 02:57:34;;;;;;;12.57;7.47;;;;;;;;;;5090758;28;20353;-59
2023/10/06 03:00:28;;;;;;;12.10;7.00;;;;;;;;;;5072698;28;20055;-56
2023/10/06 03:02:46;;;;;;;12.07;7.10;;;;;;;;;;5090864;28;20081;-57
2023/10/06 03:05:13;;;;;;;12.60;7.90;;;;;;;;;;5090893;28;20020;-57
2023/10/06 03:07:39;;;;;;;12.70;7.95;;;;;;;;;;5072450;28;20052;-59
2023/10/06 03:10:08;;;;;;;12.73;7.82;;;;;;;;;;5090587;28;20024;-59
2023/10/06 03:12:39;;;;;;;12.55;7.88;;;;;;;;;;5072416;28;20103;-59
2023/10/06 03:15:28;;;;;;;12.00;6.90;;;;;;;;;;5090547;28;20125;-60
2023/10/06 03:17:51;;;;;;;13.13;7.65;;;;;;;;;;5090536;28;20032;-59
2023/10/06 03:20:22;;;;;;;11.65;6.80;;;;;;;;;;5090414;28;20031;-60
2023/10/06 03:22:51;;;;;;;13.13;7.90;;;;;;;;;;5090620;28;20067;-60
2023/10/06 03:25:18;;;;;;;11.77;6.88;;;;;;;;;;5090427;28;20016;-59
2023/10/06 03:27:53;;;;;;;12.13;7.10;;;;;;;;;;5090320;28;20085;-60
2023/10/06 03:30:27;;;;;;;13.95;8.85;;;;;;;;;;5090523;28;20506;-59
2023/10/06 03:32:53;;;;;;;12.00;7.13;;;;;;;;;;5090490;28;20647;-60
2023/10/06 03:35:23;;;;;;;11.93;7.20;;;;;;;;;;5090362;28;20478;-60
2023/10/06 03:37:56;;;;;;;15.25;7.40;;;;;;;;;;5090344;28;20405;-58
2023/10/06 03:40:24;;;;;;;11.80;6.80;;;;;;;;;;5090003;28;20028;-60
2023/10/06 03:42:52;;;;;;;13.07;8.40;;;;;;;;;;5090231;28;20020;-60
2023/10/06 03:45:26;;;;;;;11.75;6.93;;;;;;;;;;5090291;28;20416;-60
2023/10/06 03:47:52;;;;;;;11.70;6.95;;;;;;;;;;5090252;28;20085;-60
2023/10/06 03:50:19;;;;;;;37.72;9.38;;;;;;;;;;5089653;28;20028;-60
2023/10/06 03:52:48;;;;;;;13.40;7.80;;;;;;;;;;5090157;28;20016;-59
2023/10/06 03:55:14;;;;;;;13.15;7.85;;;;;;;;;;5090093;28;20039;-58
2023/10/06 03:57:40;;;;;;;12.45;7.20;;;;;;;;;;5089994;28;20036;-58
2023/10/06 04:00:08;;;;;;;12.88;7.68;;;;;;;;;;5090093;28;20060;-59
2023/10/06 04:02:40;;;;;;;20.92;8.23;;;;;;;;;;5090165;28;20404;-59
2023/10/06 04:05:06;;;;;;;14.57;9.15;;;;;;;;;;5071944;28;20020;-59
2023/10/06 04:07:32;;;;;;;12.82;8.05;;;;;;;;;;5090217;28;20067;-58
2023/10/06 04:09:58;;;;;;;12.77;7.38;;;;;;;;;;5090235;28;20156;-59
2023/10/06 04:12:25;;;;;;;12.82;7.57;;;;;;;;;;5075038;28;20066;-60
2023/10/06 04:14:53;;;;;;;12.70;7.50;;;;;;;;;;5093717;28;20509;-59
2023/10/06 04:17:21;;;;;;;12.90;7.43;;;;;;;;;;5093968;28;20107;-59
2023/10/06 04:19:48;;;;;;;13.20;8.02;;;;;;;;;;5093905;28;20024;-60
2023/10/06 04:22:14;;;;;;;13.13;7.70;;;;;;;;;;5093722;28;20066;-58
2023/10/06 04:24:40;;;;;;;13.40;8.10;;;;;;;;;;5093704;28;20043;-60
2023/10/06 04:27:07;;;;;;;13.50;8.43;;;;;;;;;;5093722;28;20474;-59
2023/10/06 04:29:34;;;;;;;14.55;8.68;;;;;;;;;;5093704;28;20123;-62
2023/10/06 04:32:00;;;;;;;13.32;7.90;;;;;;;;;;5093550;28;20020;-60
2023/10/06 04:34:27;;;;;;;16.55;10.20;;;;;;;;;;5093611;28;20367;-60
2023/10/06 04:36:56;;;;;;;13.63;8.23;;;;;;;;;;5075366;28;20020;-60
2023/10/06 04:39:23;;;;;;;13.20;8.00;;;;;;;;;;5093393;28;20039;-59
2023/10/06 04:41:49;;;;;;;14.25;8.27;;;;;;;;;;5093385;28;20490;-60
2023/10/06 04:44:15;;;;;;;13.82;9.43;;;;;;;;;;5093102;28;20028;-57
2023/10/06 04:46:41;;;;;;;13.27;7.70;;;;;;;;;;5092968;28;20027;-60
2023/10/06 04:49:07;;;;;;;14.30;8.73;;;;;;;;;;5074839;28;20477;-59
2023/10/06 04:51:34;;;;;;;12.95;7.70;;;;;;;;;;5093015;28;20032;-60
2023/10/06 04:54:02;;;;;;;13.13;7.72;;;;;;;;;;5093093;28;20150;-58
2023/10/06 04:56:32;;;;;;;13.27;7.95;;;;;;;;;;5092984;28;20020;-59
2023/10/06 04:58:58;;;;;;;13.07;7.90;;;;;;;;;;5074738;28;20050;-58
2023/10/06 05:01:24;;;;;;;12.40;7.20;;;;;;;;;;5092611;28;20032;-55
2023/10/06 05:03:50;;;;;;;12.82;7.60;;;;;;;;;;5092902;28;20021;-58
2023/10/06 05:06:17;;;;;;;13.10;7.60;;;;;;;;;;5093014;28;20024;-57
2023/10/06 05:08:47;;;;;;;13.02;7.85;;;;;;;;;;5092824;28;20416;-59
2023/10/06 05:11:19;;;;;;;13.48;8.23;;;;;;;;;;5092652;28;20393;-58
2023/10/06 05:13:55;;;;;;;17.00;8.23;;;;;;;;;;5074778;28;20024;-60
2023/10/06 05:16:22;;;;;;;12.98;7.50;;;;;;;;;;5075038;28;20032;-60
2023/10/06 05:18:49;;;;;;;13.80;9.07;;;;;;;;;;5074560;28;20024;-60
2023/10/06 05:21:15;;;;;;;13.20;7.68;;;;;;;;;;5074323;28;20024;-60
2023/10/06 05:23:41;;;;;;;13.50;8.27;;;;;;;;;;5073259;28;20032;-60
2023/10/06 05:26:10;;;;;;;13.45;8.10;;;;;;;;;;5092548;28;20023;-59
2023/10/06 05:28:37;;;;;;;13.55;8.30;;;;;;;;;;5084481;28;20341;-60
2023/10/06 05:31:03;;;;;;;13.32;7.90;;;;;;;;;;5088707;28;20474;-65
2023/10/06 05:33:29;;;;;;;13.20;7.80;;;;;;;;;;5059454;28;20031;-60
2023/10/06 05:35:55;;;;;;;13.35;7.85;;;;;;;;;;5072078;28;20029;-60
2023/10/06 05:38:21;;;;;;;13.10;7.60;;;;;;;;;;5073827;28;20027;-59
2023/10/06 05:40:50;;;;;;;13.32;7.95;;;;;;;;;;5091928;28;20024;-59
2023/10/06 05:43:17;;;;;;;13.27;8.00;;;;;;;;;;5092454;28;20062;-60
2023/10/06 05:45:51;;;;;;;13.27;7.97;;;;;;;;;;5063886;28;20478;-59
2023/10/06 05:48:20;;;;;;;13.15;7.75;;;;;;;;;;5071704;28;20024;-60
2023/10/06 05:50:48;;;;;;;13.93;8.80;;;;;;;;;;5071338;28;20070;-60
2023/10/06 05:53:22;;;;;;;13.98;9.38;;;;;;;;;;5053601;28;20025;-56
2023/10/06 05:55:49;;;;;;;13.50;8.40;;;;;;;;;;5053287;28;20031;-59
2023/10/06 05:58:19;;;;;;;13.68;8.50;;;;;;;;;;5071665;28;20110;-60
2023/10/06 06:00:51;;;;;;;25.17;9.15;;;;;;;;;;5071409;28;20035;-58
2023/10/06 06:03:21;;;;;;;13.68;8.43;;;;;;;;;;5085580;28;20024;-59
2023/10/06 06:05:48;;;;;;;13.43;8.07;;;;;;;;;;5091281;28;20531;-60
2023/10/06 06:08:14;;;;;;;13.45;8.10;;;;;;;;;;5091436;28;20063;-60
2023/10/06 06:10:40;;;;;;;16.42;9.35;;;;;;;;;;5091367;28;20079;-57
2023/10/06 06:13:07;;;;;;;13.80;8.70;;;;;;;;;;5072836;28;20499;-59
2023/10/06 06:15:33;;;;;;;13.57;8.45;;;;;;;;;;5090881;28;20059;-61
2023/10/06 06:18:00;;;;;;;13.45;8.18;;;;;;;;;;5091360;28;20495;-60
2023/10/06 06:20:27;;;;;;;13.52;8.23;;;;;;;;;;5091286;28;20057;-58
2023/10/06 06:22:59;;;;;;;13.48;8.40;;;;;;;;;;5091210;28;20059;-59
2023/10/06 06:25:28;;;;;;;18.58;8.77;;;;;;;;;;5073023;28;20110;-59
2023/10/06 06:27:55;;;;;;;15.00;8.70;;;;;;;;;;5091291;28;20111;-61
2023/10/06 06:30:24;;;;;;;13.43;8.05;;;;;;;;;;5072903;28;20016;-57
2023/10/06 06:32:50;;;;;;;13.48;8.20;;;;;;;;;;5091182;28;20481;-60
2023/10/06 06:35:25;;;;;;;14.90;8.55;;;;;;;;;;5090512;28;20405;-60
2023/10/06 06:37:59;;;;;;;13.48;8.05;;;;;;;;;;5073133;28;20477;-58
2023/10/06 06:40:26;;;;;;;13.57;8.45;;;;;;;;;;5072505;28;20092;-59
2023/10/06 06:42:52;;;;;;;13.30;7.90;;;;;;;;;;5072811;28;20028;-56
2023/10/06 06:45:19;;;;;;;13.40;7.90;;;;;;;;;;5072517;28;20028;-59
2023/10/06 06:47:45;;;;;;;13.75;8.50;;;;;;;;;;5090881;28;20042;-59
2023/10/06 06:50:17;;;;;;;13.48;8.25;;;;;;;;;;5090730;28;20032;-60
2023/10/06 06:52:44;;;;;;;13.60;8.60;;;;;;;;;;5090959;28;20040;-58
2023/10/06 06:55:13;;;;;;;13.70;8.90;;;;;;;;;;5090731;28;20454;-59
2023/10/06 06:57:41;;;;;;;13.48;8.27;;;;;;;;;;5072253;28;20020;-58
2023/10/06 07:00:15;;;;;;;13.57;8.50;;;;;;;;;;5090608;28;20397;-60
2023/10/06 07:02:41;;;;;;;13.52;8.38;;;;;;;;;;5083049;28;20012;-60
2023/10/06 07:05:07;;;;;;;14.00;8.40;;;;;;;;;;5070361;28;20121;-60
2023/10/06 07:07:34;;;;;;;13.43;8.27;;;;;;;;;;5052057;28;20478;-60
2023/10/06 07:10:06;;;;;;;13.60;8.50;;;;;;;;;;5070089;28;20070;-60
2023/10/06 07:12:32;;;;;;;15.55;9.75;;;;;;;;;;5070418;28;20047;-60
2023/10/06 07:14:58;;;;;;;13.70;8.88;;;;;;;;;;5069909;28;20394;-59
2023/10/06 07:17:24;;;;;;;16.60;9.20;;;;;;;;;;5070294;28;20063;-60
2023/10/06 07:19:51;;;;;;;13.57;8.60;;;;;;;;;;5070097;28;20017;-59
2023/10/06 07:22:17;;;;;;;13.80;9.10;;;;;;;;;;5069674;28;20023;-60
2023/10/06 07:24:47;;;;;;;13.57;8.57;;;;;;;;;;5069949;28;20029;-60
2023/10/06 07:27:13;;;;;;;13.50;8.30;;;;;;;;;;5070206;28;20617;-60
2023/10/06 07:29:39;;;;;;;13.63;8.70;;;;;;;;;;5078262;28;20099;-59
2023/10/06 07:32:05;;;;;;;14.00;9.57;;;;;;;;;;5089959;28;20017;-68
2023/10/06 07:34:31;;;;;;;15.05;10.00;;;;;;;;;;5090425;28;20181;-53
2023/10/06 07:36:57;;;;;;;13.63;8.68;;;;;;;;;;5089892;28;20016;-53
2023/10/06 07:39:23;;;;;;;13.57;8.57;;;;;;;;;;5090156;28;20024;-51
2023/10/06 07:41:49;;;;;;;16.08;9.88;;;;;;;;;;5089808;28;20032;-52
2023/10/06 07:44:15;;;;;;;13.68;8.98;;;;;;;;;;5090347;28;20028;-51
2023/10/06 07:46:41;;;;;;;13.73;9.00;;;;;;;;;;5089381;28;20416;-56
2023/10/06 07:49:07;;;;;;;13.60;8.60;;;;;;;;;;5090075;28;20087;-52
2023/10/06 07:51:33;;;;;;;13.65;8.77;;;;;;;;;;5089903;28;20028;-52
2023/10/06 07:54:00;;;;;;;13.75;9.05;;;;;;;;;;5090064;28;20020;-52
2023/10/06 07:56:26;;;;;;;14.43;9.82;;;;;;;;;;5090091;28;20028;-55
2023/10/06 07:58:57;;;;;;;13.65;8.70;;;;;;;;;;5071966;28;20056;-52
2023/10/06 08:01:23;;;;;;;13.65;8.80;;;;;;;;;;5089500;28;20020;-56
2023/10/06 08:03:49;;;;;;;13.95;9.40;;;;;;;;;;5090029;28;20546;-56
2023/10/06 08:06:15;;;;;;;13.80;9.15;;;;;;;;;;5090038;28;20066;-55
2023/10/06 08:08:41;;;;;;;13.85;9.40;;;;;;;;;;5089903;28;20501;-57
2023/10/06 08:11:08;;;;;;;14.05;9.73;;;;;;;;;;5089705;28;20042;-54
2023/10/06 08:13:35;;;;;;;15.48;10.18;;;;;;;;;;5090363;28;20020;-55
2023/10/06 08:16:01;;;;;;;14.48;9.50;;;;;;;;;;5089985;28;20114;-52
2023/10/06 08:18:30;;;;;;;13.95;9.00;;;;;;;;;;5089795;28;20024;-54
2023/10/06 08:21:03;;;;;;;13.73;9.10;;;;;;;;;;5083667;28;20382;-55
2023/10/06 08:23:31;;;;;;;13.73;8.90;;;;;;;;;;5106177;27;20040;-56
2023/10/06 08:25:57;;;;;;;14.20;9.18;;;;;;;;;;5091554;28;20020;-57
2023/10/06 08:28:24;;;;;;;13.70;8.93;;;;;;;;;;5094417;28;20016;-58
2023/10/06 08:30:50;;;;;;;13.73;8.82;;;;;;;;;;5108392;28;20028;-57
2023/10/06 08:33:16;;;;;;;13.75;8.82;;;;;;;;;;5084624;28;20493;-52
2023/10/06 08:35:42;;;;;;;14.00;9.00;;;;;;;;;;5089486;28;20081;-56
2023/10/06 08:38:09;;;;;;;14.35;9.25;;;;;;;;;;5071345;28;20024;-55
2023/10/06 08:40:36;;;;;;;13.82;9.00;;;;;;;;;;5070678;28;20118;-48
2023/10/06 08:43:06;;;;;;;13.60;8.73;;;;;;;;;;5071074;28;20023;-52
2023/10/06 08:45:33;;;;;;;13.80;9.07;;;;;;;;;;5089360;28;20023;-54
2023/10/06 08:47:59;;;;;;;14.00;9.43;;;;;;;;;;5089227;28;20107;-51
2023/10/06 08:50:27;;;;;;;13.80;9.18;;;;;;;;;;5089040;28;20016;-50
2023/10/06 08:52:54;;;;;;;14.10;9.90;;;;;;;;;;5089304;28;20016;-50
2023/10/06 08:55:21;;;;;;;14.20;9.80;;;;;;;;;;5089510;28;20550;-56
2023/10/06 08:57:47;;;;;;;13.98;9.60;;;;;;;;;;5091494;28;20035;-51
2023/10/06 09:00:14;;;;;;;13.93;9.70;;;;;;;;;;5092741;28;20032;-51
2023/10/06 09:02:41;;;;;;;14.00;9.82;;;;;;;;;;5093574;28;20020;-57
2023/10/06 09:05:12;;;;;;;16.25;10.90;;;;;;;;;;5093346;28;20036;-54
2023/10/06 09:07:38;;;;;;;13.98;9.60;;;;;;;;;;5093014;28;20031;-55
2023/10/06 09:10:17;;;;;;;14.63;10.50;;;;;;;;;;5092744;28;20020;-49
2023/10/06 09:12:45;;;;;;;14.00;9.52;;;;;;;;;;5093349;28;20446;-55
2023/10/06 09:15:16;;;;;;;14.00;9.60;;;;;;;;;;5092856;28;20028;-53
2023/10/06 09:17:42;;;;;;;13.80;9.40;;;;;;;;;;5092871;28;20520;-55
2023/10/06 09:20:08;;;;;;;13.95;9.60;;;;;;;;;;5092908;28;20024;-50
2023/10/06 09:22:44;;;;;;;14.07;10.05;;;;;;;;;;5093190;28;20394;-53
2023/10/06 09:25:10;;;;;;;14.00;9.77;;;;;;;;;;5092497;28;20103;-55
2023/10/06 09:27:37;;;;;;;15.20;11.02;;;;;;;;;;5092666;28;20035;-53
2023/10/06 09:30:10;;;;;;;14.40;10.32;;;;;;;;;;5091620;28;20504;-56
2023/10/06 09:32:36;;;;;;;14.25;10.32;;;;;;;;;;5092456;28;20031;-58
2023/10/06 09:35:32;;;;;;;14.40;10.50;;;;;;;;;;5092134;28;20386;-55
2023/10/06 09:38:14;;;;;;;16.42;10.50;;;;;;;;;;5070966;28;20044;-58
2023/10/06 09:40:43;;;;;;;14.45;10.40;;;;;;;;;;5109711;28;20076;-53
2023/10/06 09:43:12;;;;;;;14.18;10.10;;;;;;;;;;5112583;28;20172;-57
2023/10/06 09:45:41;;;;;;;14.30;10.35;;;;;;;;;;5094342;28;20365;-56
2023/10/06 09:48:13;;;;;;;14.02;9.95;;;;;;;;;;5112835;28;20037;-58
2023/10/06 09:50:40;;;;;;;13.95;9.80;;;;;;;;;;5112467;28;20012;-56
2023/10/06 09:53:10;;;;;;;14.40;10.43;;;;;;;;;;5112179;28;20031;-56
2023/10/06 09:55:36;;;;;;;14.00;9.60;;;;;;;;;;5093170;28;20488;-58
2023/10/06 09:58:05;;;;;;;14.60;10.85;;;;;;;;;;5112703;28;20056;-56
2023/10/06 10:00:31;;;;;;;;;;;;;;;;;;5112476;28;20016;-54
2023/10/06 10:02:58;;;;;;;14.40;10.70;;;;;;;;;;5112411;28;19910;-54
2023/10/06 10:05:24;;;;;;;14.30;10.07;;;;;;;;;;5112269;28;20650;-54
2023/10/06 10:07:50;;;;;;;14.18;10.20;;;;;;;;;;5091350;28;20031;-56
2023/10/06 10:10:22;;;;;;;14.50;10.38;;;;;;;;;;5090720;28;20020;-53
2023/10/06 10:13:07;;;;;;;14.20;10.40;;;;;;;;;;5091547;28;20137;-54
2023/10/06 10:15:51;;;;;;;14.25;10.35;;;;;;;;;;5066064;28;20021;-58
2023/10/06 10:18:33;;;;;;;14.05;9.95;;;;;;;;;;5080926;28;20078;-56
2023/10/06 10:21:00;;;;;;;15.38;10.00;;;;;;;;;;5079125;28;20385;-55
2023/10/06 10:23:29;;;;;;;14.00;9.88;;;;;;;;;;5082189;28;20118;-58
2023/10/06 10:26:03;;;;;;;14.20;10.30;;;;;;;;;;5080279;28;20070;-56
2023/10/06 10:28:30;;;;;;;14.05;9.80;;;;;;;;;;5076677;28;20099;-57
2023/10/06 10:31:04;;;;;;;14.00;9.85;;;;;;;;;;5090103;28;20454;-56
2023/10/06 10:33:38;;;;;;;14.82;10.63;;;;;;;;;;5091160;28;20048;-57
2023/10/06 10:36:14;;;;;;;14.05;9.82;;;;;;;;;;5091398;28;20024;-56
2023/10/06 10:38:44;;;;;;;14.50;10.80;;;;;;;;;;5091466;28;20381;-57
2023/10/06 10:41:11;;;;;;;13.98;9.80;;;;;;;;;;5087629;28;20103;-54
2023/10/06 10:43:45;;;;;;;14.20;10.25;;;;;;;;;;5091245;28;20650;-51
2023/10/06 10:46:14;;;;;;;15.48;11.73;;;;;;;;;;5091037;28;20107;-57
2023/10/06 10:48:50;;;;;;;14.40;10.70;;;;;;;;;;5090948;28;20030;-56
2023/10/06 10:51:21;;;;;;;14.15;10.23;;;;;;;;;;5090937;28;20048;-57
2023/10/06 10:53:49;;;;;;;15.55;11.40;;;;;;;;;;5090945;28;20034;-55
2023/10/06 10:56:34;;;;;;;14.40;10.48;;;;;;;;;;5090699;28;20511;-58
2023/10/06 10:59:00;;;;;;;14.73;11.10;;;;;;;;;;5090693;28;20043;-57
2023/10/06 11:01:31;;;;;;;15.85;11.32;;;;;;;;;;5090537;28;20516;-57
2023/10/06 11:04:12;;;;;;;14.18;10.20;;;;;;;;;;5072687;28;20657;-55
2023/10/06 11:06:46;;;;;;;15.70;11.25;;;;;;;;;;5090739;28;20482;-53
2023/10/06 11:12:05;;;;;;;14.82;10.80;;;;;;;;;;5090751;28;20035;-53
2023/10/06 11:14:38;;;;;;;18.92;11.85;;;;;;;;;;5090606;28;20038;-55
2023/10/06 11:17:05;;;;;;;14.30;10.60;;;;;;;;;;5089418;28;20039;-58
2023/10/06 11:19:32;;;;;;;14.20;10.40;;;;;;;;;;5089452;28;20052;-54
2023/10/06 11:22:13;;;;;;;14.20;10.40;;;;;;;;;;5088099;28;20119;-60
2023/10/06 11:24:40;;;;;;;15.07;11.15;;;;;;;;;;5089500;28;20034;-55
2023/10/06 11:27:12;;;;;;;15.45;11.63;;;;;;;;;;5089497;28;20028;-56
2023/10/06 11:29:38;;;;;;;14.38;10.90;;;;;;;;;;5088080;28;20047;-57
2023/10/06 11:32:04;;;;;;;41.78;13.25;;;;;;;;;;5087963;28;20095;-56
2023/10/06 11:34:32;;;;;;;15.18;11.88;;;;;;;;;;5088817;28;20046;-58
2023/10/06 11:36:58;;;;;;;14.65;11.32;;;;;;;;;;5089018;28;20103;-57
2023/10/06 11:39:30;;;;;;;14.25;10.75;;;;;;;;;;5089949;28;20028;-56
2023/10/06 11:42:15;;;;;;;15.65;12.10;;;;;;;;;;5089091;28;20068;-56
2023/10/06 11:44:41;;;;;;;14.88;10.90;;;;;;;;;;5088969;28;20051;-56
2023/10/06 11:47:07;;;;;;;14.60;11.48;;;;;;;;;;5088792;28;20494;-59
2023/10/06 11:49:33;;;;;;;14.80;11.70;;;;;;;;;;5088076;28;20032;-56
2023/10/06 11:52:00;;;;;;;14.60;11.25;;;;;;;;;;5088237;28;20024;-58
2023/10/06 11:54:28;;;;;;;14.50;11.07;;;;;;;;;;5089211;28;20144;-57
2023/10/06 11:56:56;;;;;;;14.73;11.60;;;;;;;;;;5089379;28;20020;-56
2023/10/06 11:59:22;;;;;;;14.60;11.40;;;;;;;;;;5089157;28;20031;-55
2023/10/06 12:01:49;;;;;;;14.60;11.40;;;;;;;;;;5070643;28;20070;-55
2023/10/06 12:04:31;;;;;;;14.57;11.35;;;;;;;;;;5088410;28;20448;-56
2023/10/06 12:07:00;;;;;;;14.80;11.90;;;;;;;;;;5088905;28;20430;-54
2023/10/06 12:09:30;;;;;;;18.13;11.40;;;;;;;;;;5070697;28;20032;-60
2023/10/06 12:11:59;;;;;;;14.68;11.50;;;;;;;;;;5087272;28;20035;-53
2023/10/06 12:14:25;;;;;;;14.55;11.27;;;;;;;;;;5047524;28;1127628;-57
2023/10/06 12:16:51;;;;;;;15.25;11.95;;;;;;;;;;5089965;28;20127;-55
2023/10/06 12:19:18;;;;;;;14.90;12.07;;;;;;;;;;5088059;28;20536;-59
2023/10/06 12:21:44;;;;;;;15.18;11.98;;;;;;;;;;5086742;28;20024;-58
2023/10/06 12:24:11;;;;;;;15.13;12.38;;;;;;;;;;5071390;28;20020;-62
2023/10/06 12:26:40;;;;;;;21.55;12.27;;;;;;;;;;5089597;28;20057;-55
2023/10/06 12:29:07;;;;;;;14.73;11.93;;;;;;;;;;5084579;28;20086;-56
2023/10/06 12:31:34;;;;;;;14.70;11.70;;;;;;;;;;5069346;28;20038;-58
2023/10/06 12:34:03;;;;;;;15.20;12.50;;;;;;;;;;5073041;28;20478;-56
2023/10/06 12:36:31;;;;;;;23.60;13.70;;;;;;;;;;5074071;28;20072;-53
2023/10/06 12:38:59;;;;;;;14.70;11.60;;;;;;;;;;5093129;28;20028;-58
2023/10/06 12:41:25;;;;;;;14.77;11.75;;;;;;;;;;5092936;28;20593;-56
2023/10/06 12:43:51;;;;;;;14.80;11.77;;;;;;;;;;5092998;28;20386;-56
2023/10/06 12:46:18;;;;;;;15.10;11.80;;;;;;;;;;5092981;28;20077;-57
2023/10/06 12:48:46;;;;;;;15.10;11.80;;;;;;;;;;5074459;28;20498;-53
2023/10/06 12:51:13;;;;;;;25.77;14.13;;;;;;;;;;5071755;28;20402;-56
2023/10/06 12:53:42;;;;;;;14.70;11.52;;;;;;;;;;5072365;28;20051;-56
2023/10/06 12:56:12;;;;;;;14.68;11.48;;;;;;;;;;5054441;28;20020;-54
2023/10/06 12:58:38;;;;;;;15.00;11.70;;;;;;;;;;5072606;28;20048;-56
2023/10/06 13:01:07;;;;;;;15.05;12.32;;;;;;;;;;5072412;28;20029;-55
2023/10/06 13:03:33;;;;;;;14.90;11.80;;;;;;;;;;5072734;28;20051;-56
2023/10/06 13:06:02;;;;;;;14.70;11.77;;;;;;;;;;5072300;28;20034;-59
2023/10/06 13:08:28;;;;;;;16.75;13.88;;;;;;;;;;5072596;28;20063;-54
2023/10/06 13:10:54;;;;;;;15.20;12.75;;;;;;;;;;5072223;28;20017;-55
2023/10/06 13:13:20;;;;;;;16.83;12.00;;;;;;;;;;5072029;28;20038;-55
2023/10/06 13:15:47;;;;;;;14.73;11.65;;;;;;;;;;5072242;28;20036;-53
2023/10/06 13:18:16;;;;;;;14.98;11.60;;;;;;;;;;5072345;28;20021;-54
2023/10/06 13:20:43;;;;;;;15.05;12.35;;;;;;;;;;5072406;28;20105;-57
2023/10/06 13:23:09;;;;;;;16.70;12.48;;;;;;;;;;5081516;28;20424;-55
2023/10/06 13:25:38;;;;;;;14.82;11.38;;;;;;;;;;5065070;28;20027;-52
2023/10/06 13:28:14;;;;;;;15.32;12.57;;;;;;;;;;5092392;28;20077;-55
2023/10/06 13:30:40;;;;;;;14.80;11.80;;;;;;;;;;5091950;28;20019;-52
2023/10/06 13:33:06;;;;;;;14.80;11.80;;;;;;;;;;5074082;28;20481;-54
2023/10/06 13:35:33;;;;;;;14.60;11.30;;;;;;;;;;5092094;28;20028;-53
2023/10/06 13:37:59;;;;;;;15.27;12.90;;;;;;;;;;5092236;28;20032;-55
2023/10/06 13:40:25;;;;;;;14.60;11.52;;;;;;;;;;5092102;28;20054;-57
2023/10/06 13:42:52;;;;;;;14.68;11.40;;;;;;;;;;5091939;28;20028;-55
2023/10/06 13:45:20;;;;;;;14.70;11.48;;;;;;;;;;5088548;28;20107;-59
2023/10/06 13:47:53;;;;;;;20.90;13.23;;;;;;;;;;5082330;28;20482;-57
2023/10/06 13:50:20;;;;;;;14.80;11.52;;;;;;;;;;5081688;28;20025;-55
2023/10/06 13:52:47;;;;;;;16.85;13.20;;;;;;;;;;5080265;28;20474;-57
2023/10/06 13:55:14;;;;;;;14.98;12.07;;;;;;;;;;5081276;28;20458;-53
2023/10/06 13:57:41;;;;;;;15.10;12.55;;;;;;;;;;5081920;28;20013;-56
2023/10/06 14:00:11;;;;;;;14.80;11.80;;;;;;;;;;5088177;28;20020;-54
2023/10/06 14:02:37;;;;;;;14.70;11.60;;;;;;;;;;5091662;28;20030;-58
2023/10/06 14:05:04;;;;;;;14.60;11.45;;;;;;;;;;5091679;28;20103;-52
2023/10/06 14:07:31;;;;;;;25.85;12.65;;;;;;;;;;5091807;28;20035;-56
2023/10/06 14:09:58;;;;;;;23.27;13.05;;;;;;;;;;5091816;28;20218;-58
2023/10/06 14:12:26;;;;;;;14.68;11.55;;;;;;;;;;5091708;28;20029;-57
2023/10/06 14:17:20;;;;;;;14.90;12.00;;;;;;;;;;5091496;28;20075;-53
2023/10/06 14:19:47;;;;;;;15.00;12.40;;;;;;;;;;5072328;28;20039;-56
2023/10/06 14:22:15;;;;;;;14.70;11.73;;;;;;;;;;5091085;28;20020;-56
2023/10/06 14:24:41;;;;;;;14.70;11.63;;;;;;;;;;5091228;28;20035;-59
2023/10/06 14:27:10;;;;;;;15.43;12.50;;;;;;;;;;5091479;28;20477;-58
2023/10/06 14:29:36;;;;;;;14.90;12.00;;;;;;;;;;5091166;28;20466;-56
2023/10/06 14:32:18;;;;;;;14.90;12.00;;;;;;;;;;5069023;28;20026;-60
2023/10/06 14:34:58;;;;;;;14.90;12.10;;;;;;;;;;5090763;28;20040;-55
2023/10/06 14:37:40;;;;;;;14.73;11.65;;;;;;;;;;5091403;28;20020;-57
2023/10/06 14:46:18;;;;;;;14.70;11.63;;;;;;;;;;4949629;28;20019;-54
2023/10/06 14:48:45;;;;;;;14.80;11.50;;;;;;;;;;4990804;28;20102;-55
2023/10/06 14:51:12;;;;;;;14.63;11.32;;;;;;;;;;5037840;28;20039;-55
2023/10/06 14:53:38;;;;;;;14.50;11.02;;;;;;;;;;5070395;28;20025;-57
2023/10/06 14:56:04;;;;;;;15.10;11.30;;;;;;;;;;5068935;28;20025;-59